createdAt,value
2022-09-20T00:01:21.933Z,20.47
2022-09-20T00:03:54.875Z,20.38
2022-09-20T00:06:25.179Z,20.20
2022-09-20T00:08:53.261Z,20.03
2022-09-20T00:11:23.364Z,20.15
2022-09-20T00:13:53.658Z,20.13
2022-09-20T00:16:24.199Z,20.12
2022-09-20T00:18:53.589Z,19.97
2022-09-20T00:21:23.632Z,19.89
2022-09-20T00:23:52.686Z,19.77
2022-09-20T00:26:20.863Z,19.59
2022-09-20T00:28:48.876Z,19.41
2022-09-20T00:31:16.485Z,19.38
2022-09-20T00:34:02.279Z,19.32
2022-09-20T00:36:30.011Z,19.24
2022-09-20T00:39:04.401Z,19.22
2022-09-20T00:41:33.079Z,18.99
2022-09-20T00:44:01.464Z,19.12
2022-09-20T00:46:40.762Z,19.39
2022-09-20T00:49:19.514Z,19.76
2022-09-20T00:51:51.596Z,19.79
2022-09-20T00:54:22.090Z,19.78
2022-09-20T00:56:50.022Z,19.78
2022-09-20T00:59:25.811Z,19.72
2022-09-20T01:02:03.428Z,19.52
2022-09-20T01:04:31.040Z,19.42
2022-09-20T01:07:03.025Z,19.66
2022-09-20T01:09:30.471Z,19.67
2022-09-20T01:12:02.620Z,19.80
2022-09-20T01:14:30.696Z,19.69
2022-09-20T01:17:02.534Z,19.42
2022-09-20T01:19:58.870Z,19.22
2022-09-20T01:22:46.957Z,18.91
2022-09-20T01:25:29.387Z,18.81
2022-09-20T01:27:56.948Z,18.58
2022-09-20T01:30:39.318Z,18.80
2022-09-20T01:33:37.027Z,18.66
2022-09-20T01:36:06.539Z,18.48
2022-09-20T01:38:43.770Z,18.41
2022-09-20T01:41:55.413Z,18.44
2022-09-20T01:44:22.775Z,18.31
2022-09-20T01:47:00.144Z,18.32
2022-09-20T01:49:46.911Z,18.55
2022-09-20T01:52:37.483Z,18.22
2022-09-20T01:55:31.041Z,18.20
2022-09-20T01:58:10.407Z,18.10
2022-09-20T02:00:52.951Z,18.20
2022-09-20T02:03:33.870Z,18.24
2022-09-20T02:06:16.356Z,18.35
2022-09-20T02:09:06.269Z,18.45
2022-09-20T02:12:04.175Z,18.89
2022-09-20T02:14:52.788Z,19.31
2022-09-20T02:17:34.941Z,19.71
2022-09-20T02:20:15.896Z,19.99
2022-09-20T02:23:20.815Z,20.36
2022-09-20T02:26:12.094Z,20.68
2022-09-20T02:29:13.610Z,21.09
2022-09-20T02:32:29.055Z,21.50
2022-09-20T02:35:17.178Z,21.87
2022-09-20T02:38:14.292Z,22.20
2022-09-20T02:41:04.546Z,22.41
2022-09-20T02:43:45.363Z,22.57
2022-09-20T02:46:29.238Z,22.80
2022-09-20T02:49:25.345Z,23.24
2022-09-20T02:51:58.515Z,23.66
2022-09-20T02:55:04.776Z,24.00
2022-09-20T02:58:07.501Z,24.69
2022-09-20T03:00:45.590Z,25.33
2022-09-20T03:03:30.408Z,25.75
2022-09-20T03:06:04.564Z,26.09
2022-09-20T03:08:47.168Z,26.30
2022-09-20T03:11:35.458Z,26.69
2022-09-20T03:14:11.817Z,27.13
2022-09-20T03:16:49.915Z,27.38
2022-09-20T03:19:35.683Z,27.71
2022-09-20T03:22:28.960Z,28.11
2022-09-20T03:25:21.606Z,28.45
2022-09-20T03:28:19.738Z,28.70
2022-09-20T03:30:52.923Z,29.20
2022-09-20T03:33:26.353Z,29.38
2022-09-20T03:36:18.570Z,29.38
2022-09-20T03:39:04.387Z,29.32
2022-09-20T03:41:56.314Z,29.48
2022-09-20T03:44:51.021Z,29.53
2022-09-20T03:47:37.033Z,29.65
2022-09-20T03:50:13.279Z,29.86
2022-09-20T03:53:07.170Z,29.94
2022-09-20T03:55:58.568Z,30.13
2022-09-20T03:58:49.823Z,30.27
2022-09-20T04:01:32.944Z,30.47
2022-09-20T04:04:12.599Z,30.58
2022-09-20T04:07:01.567Z,30.70
2022-09-20T04:09:57.955Z,31.02
2022-09-20T04:12:47.283Z,31.23
2022-09-20T04:15:38.019Z,31.39
2022-09-20T04:18:20.047Z,31.77
2022-09-20T04:20:53.523Z,32.06
2022-09-20T04:23:45.499Z,32.12
2022-09-20T04:26:14.863Z,32.33
2022-09-20T04:29:02.179Z,32.74
2022-09-20T04:31:54.514Z,33.08
2022-09-20T04:35:18.796Z,33.28
2022-09-20T04:37:47.838Z,33.93
2022-09-20T04:40:15.338Z,34.07
2022-09-20T04:42:57.809Z,34.29
2022-09-20T04:45:29.322Z,34.66
2022-09-20T04:48:28.204Z,34.79
2022-09-20T04:51:39.868Z,35.11
2022-09-20T04:54:22.443Z,35.38
2022-09-20T04:57:06.014Z,35.67
2022-09-20T04:59:42.448Z,36.05
2022-09-20T05:02:27.627Z,36.47
2022-09-20T05:05:02.463Z,36.62
2022-09-20T05:07:59.266Z,36.73
2022-09-20T05:10:55.999Z,37.32
2022-09-20T05:13:55.688Z,37.23
2022-09-20T05:16:28.704Z,37.85
2022-09-20T05:19:15.884Z,37.92
2022-09-20T05:22:10.368Z,38.21
2022-09-20T05:24:56.460Z,38.21
2022-09-20T05:27:34.629Z,38.42
2022-09-20T05:30:11.571Z,38.66
2022-09-20T05:33:06.020Z,38.83
2022-09-20T05:35:44.317Z,39.08
2022-09-20T05:38:35.929Z,39.07
2022-09-20T05:41:14.408Z,39.23
2022-09-20T05:43:53.334Z,39.47
2022-09-20T05:46:36.001Z,39.64
2022-09-20T05:49:29.565Z,39.97
2022-09-20T05:52:22.939Z,40.38
2022-09-20T05:55:11.581Z,40.41
2022-09-20T05:58:15.839Z,40.50
2022-09-20T06:00:53.618Z,41.02
2022-09-20T06:03:43.177Z,41.02
2022-09-20T06:06:42.956Z,41.42
2022-09-20T06:09:39.126Z,41.76
2022-09-20T06:12:23.097Z,42.15
2022-09-20T06:15:21.793Z,41.98
2022-09-20T06:18:25.024Z,42.37
2022-09-20T06:21:03.262Z,42.72
2022-09-20T06:23:32.694Z,43.00
2022-09-20T06:26:10.589Z,42.94
2022-09-20T06:28:42.261Z,42.91
2022-09-20T06:31:11.605Z,42.92
2022-09-20T06:34:09.437Z,42.56
2022-09-20T06:36:58.039Z,42.76
2022-09-20T06:40:07.066Z,42.54
2022-09-20T06:42:34.493Z,42.76
2022-09-20T06:45:02.024Z,42.79
2022-09-20T06:47:32.409Z,42.91
2022-09-20T06:50:01.288Z,42.74
2022-09-20T06:52:30.702Z,42.66
2022-09-20T06:54:58.197Z,43.06
2022-09-20T06:57:36.328Z,42.82
2022-09-20T07:00:10.506Z,42.75
2022-09-20T07:02:38.137Z,42.64
2022-09-20T07:05:07.782Z,42.10
2022-09-20T07:07:35.249Z,41.73
2022-09-20T07:10:02.634Z,41.73
2022-09-20T07:12:33.735Z,41.66
2022-09-20T07:15:01.808Z,41.62
2022-09-20T07:17:31.126Z,41.34
2022-09-20T07:19:58.467Z,40.91
2022-09-20T07:22:26.678Z,40.62
2022-09-20T07:24:54.097Z,40.29
2022-09-20T07:27:21.794Z,39.92
2022-09-20T07:29:49.183Z,39.69
2022-09-20T07:32:17.448Z,39.34
2022-09-20T07:34:44.860Z,39.11
2022-09-20T07:37:12.315Z,38.86
2022-09-20T07:39:39.807Z,38.62
2022-09-20T07:42:07.756Z,38.49
2022-09-20T07:44:35.241Z,38.32
2022-09-20T07:47:02.801Z,38.15
2022-09-20T07:49:30.644Z,37.99
2022-09-20T07:51:58.751Z,37.86
2022-09-20T07:54:27.918Z,37.63
2022-09-20T07:56:55.556Z,37.46
2022-09-20T07:59:23.067Z,37.26
2022-09-20T08:01:50.506Z,37.09
2022-09-20T08:04:20.546Z,36.83
2022-09-20T08:06:48.014Z,36.64
2022-09-20T08:09:15.593Z,36.40
2022-09-20T08:11:43.824Z,36.17
2022-09-20T08:14:16.233Z,36.19
2022-09-20T08:16:47.650Z,36.61
2022-09-20T08:19:21.155Z,35.94
2022-09-20T08:21:50.328Z,35.44
2022-09-20T08:24:18.094Z,35.23
2022-09-20T08:26:45.869Z,35.06
2022-09-20T08:29:15.324Z,34.78
2022-09-20T08:31:43.099Z,34.53
2022-09-20T08:34:12.625Z,34.44
2022-09-20T08:36:42.762Z,34.34
2022-09-20T08:42:20.577Z,34.09
2022-09-20T08:45:21.826Z,34.31
2022-09-20T08:48:00.638Z,34.01
2022-09-20T08:50:29.082Z,33.63
2022-09-20T08:53:00.667Z,33.58
2022-09-20T08:55:40.060Z,33.42
2022-09-20T08:58:12.966Z,33.40
2022-09-20T09:00:40.845Z,33.76
2022-09-20T09:03:13.477Z,33.26
2022-09-20T09:05:45.474Z,33.59
2022-09-20T09:08:20.617Z,33.55
2022-09-20T09:11:02.455Z,33.15
2022-09-20T09:13:49.297Z,32.80
2022-09-20T09:16:27.250Z,32.68
2022-09-20T09:18:57.921Z,32.55
2022-09-20T09:21:30.122Z,32.51
2022-09-20T09:24:14.371Z,32.61
2022-09-20T09:26:49.482Z,32.36
2022-09-20T09:29:23.231Z,32.31
2022-09-20T09:31:55.052Z,32.16
2022-09-20T09:34:39.006Z,32.16
2022-09-20T09:37:06.452Z,31.94
2022-09-20T09:39:38.559Z,31.87
2022-09-20T09:42:26.113Z,32.07
2022-09-20T09:44:53.598Z,31.66
2022-09-20T09:47:30.175Z,31.70
2022-09-20T09:50:02.590Z,31.46
2022-09-20T09:52:33.591Z,31.33
2022-09-20T09:55:05.327Z,31.42
2022-09-20T09:58:04.524Z,31.63
2022-09-20T10:00:36.021Z,31.21
2022-09-20T10:03:18.772Z,31.45
2022-09-20T10:05:55.508Z,31.37
2022-09-20T10:08:44.756Z,31.40
2022-09-20T10:11:39.670Z,31.17
2022-09-20T10:14:13.178Z,31.06
2022-09-20T10:17:12.552Z,31.14
2022-09-20T10:19:42.919Z,30.78
2022-09-20T10:23:00.316Z,31.00
2022-09-20T10:25:52.104Z,30.67
2022-09-20T10:28:28.822Z,30.61
2022-09-20T10:31:16.010Z,30.73
2022-09-20T10:33:52.704Z,30.67
2022-09-20T10:36:52.108Z,30.72
2022-09-20T10:39:31.844Z,30.53
2022-09-20T10:42:44.296Z,30.51
2022-09-20T10:45:44.100Z,30.39
2022-09-20T10:48:18.725Z,30.32
2022-09-20T10:50:52.542Z,30.21
2022-09-20T10:53:19.994Z,30.08
2022-09-20T10:56:09.837Z,30.15
2022-09-20T10:58:58.304Z,30.22
2022-09-20T11:01:33.969Z,30.03
2022-09-20T11:04:22.026Z,30.03
2022-09-20T11:07:10.421Z,30.19
2022-09-20T11:09:44.169Z,29.99
2022-09-20T11:12:42.758Z,30.13
2022-09-20T11:15:24.992Z,30.01
2022-09-20T11:17:59.967Z,29.78
2022-09-20T11:20:36.270Z,29.83
2022-09-20T11:23:13.254Z,30.00
2022-09-20T11:25:48.894Z,29.99
2022-09-20T11:28:25.388Z,29.88
2022-09-20T11:31:04.318Z,29.90
2022-09-20T11:33:41.420Z,29.86
2022-09-20T11:36:20.485Z,30.02
2022-09-20T11:38:59.409Z,29.98
2022-09-20T11:41:28.813Z,29.80
2022-09-20T11:44:13.811Z,29.98
2022-09-20T11:46:54.063Z,29.90
2022-09-20T11:49:27.336Z,29.91
2022-09-20T11:52:10.533Z,30.02
2022-09-20T11:55:15.211Z,29.92
2022-09-20T11:57:42.755Z,29.62
2022-09-20T12:00:10.682Z,29.51
2022-09-20T12:02:50.537Z,29.55
2022-09-20T12:05:42.061Z,29.71
2022-09-20T12:08:25.161Z,29.61
2022-09-20T12:11:41.552Z,29.67
2022-09-20T12:14:28.302Z,29.50
2022-09-20T12:16:57.297Z,29.27
2022-09-20T12:19:32.543Z,29.28
2022-09-20T12:21:59.928Z,29.13
2022-09-20T12:24:31.719Z,28.99
2022-09-20T12:27:01.576Z,29.01
2022-09-20T12:29:31.483Z,28.98
2022-09-20T12:32:02.394Z,28.92
2022-09-20T12:34:39.371Z,29.07
2022-09-20T12:37:13.124Z,29.03
2022-09-20T12:39:52.619Z,28.96
2022-09-20T12:42:21.872Z,28.69
2022-09-20T12:45:15.952Z,28.86
2022-09-20T12:47:53.766Z,28.83
2022-09-20T12:50:41.745Z,28.54
2022-09-20T12:53:18.667Z,28.59
2022-09-20T12:56:08.039Z,28.72
2022-09-20T12:58:40.501Z,28.46
2022-09-20T13:01:13.305Z,28.29
2022-09-20T13:03:51.447Z,28.37
2022-09-20T13:06:19.473Z,28.10
2022-09-20T13:09:04.847Z,28.25
2022-09-20T13:11:35.494Z,28.13
2022-09-20T13:14:08.702Z,27.96
2022-09-20T13:16:42.100Z,28.00
2022-09-20T13:19:20.618Z,28.10
2022-09-20T13:22:14.560Z,28.14
2022-09-20T13:24:45.967Z,27.84
2022-09-20T13:27:34.841Z,27.84
2022-09-20T13:30:24.005Z,27.94
2022-09-20T13:32:52.148Z,27.62
2022-09-20T13:35:24.343Z,27.66
2022-09-20T13:37:54.367Z,27.59
2022-09-20T13:40:23.794Z,27.58
2022-09-20T13:43:13.015Z,27.59
2022-09-20T13:45:45.328Z,27.67
2022-09-20T13:48:12.893Z,27.53
2022-09-20T13:50:45.769Z,27.54
2022-09-20T13:53:33.245Z,27.50
2022-09-20T13:56:11.992Z,27.64
2022-09-20T13:58:39.698Z,27.47
2022-09-20T14:01:20.286Z,27.42
2022-09-20T14:03:48.597Z,27.39
2022-09-20T14:06:16.609Z,27.33
2022-09-20T14:08:48.983Z,27.39
2022-09-20T14:11:23.495Z,27.44
2022-09-20T14:13:54.556Z,27.33
2022-09-20T14:16:24.845Z,27.21
2022-09-20T14:18:52.554Z,27.11
2022-09-20T14:21:31.988Z,27.20
2022-09-20T14:24:03.724Z,27.13
2022-09-20T14:26:35.043Z,27.09
2022-09-20T14:29:42.485Z,27.33
2022-09-20T14:32:19.054Z,27.10
2022-09-20T14:34:57.421Z,27.07
2022-09-20T14:37:42.010Z,27.15
2022-09-20T14:40:31.823Z,27.22
2022-09-20T14:43:01.843Z,26.95
2022-09-20T14:45:33.548Z,26.82
2022-09-20T14:48:10.495Z,26.83
2022-09-20T14:50:42.364Z,26.74
2022-09-20T14:53:13.015Z,26.77
2022-09-20T14:55:55.759Z,26.61
2022-09-20T14:58:24.985Z,27.06
2022-09-20T15:01:01.894Z,26.63
2022-09-20T15:03:43.158Z,26.53
2022-09-20T15:06:12.084Z,26.31
2022-09-20T15:08:45.493Z,26.19
2022-09-20T15:11:19.043Z,26.28
2022-09-20T15:13:46.735Z,26.06
2022-09-20T15:16:17.819Z,25.92
2022-09-20T15:18:45.550Z,25.88
2022-09-20T15:21:13.412Z,25.83
2022-09-20T15:23:41.234Z,25.80
2022-09-20T15:26:11.551Z,25.80
2022-09-20T15:28:39.130Z,25.66
2022-09-20T15:31:06.747Z,25.59
2022-09-20T15:33:34.312Z,25.52
2022-09-20T15:36:03.450Z,25.52
2022-09-20T15:38:49.177Z,25.53
2022-09-20T15:41:16.706Z,25.45
2022-09-20T15:43:44.172Z,25.38
2022-09-20T15:46:20.676Z,25.60
2022-09-20T15:48:48.651Z,25.31
2022-09-20T15:51:16.738Z,25.25
2022-09-20T15:53:46.612Z,25.23
2022-09-20T15:56:31.247Z,25.35
2022-09-20T15:59:01.320Z,25.11
2022-09-20T16:01:32.233Z,24.99
2022-09-20T16:04:00.405Z,24.93
2022-09-20T16:06:27.861Z,24.91
2022-09-20T16:08:56.034Z,24.87
2022-09-20T16:11:24.158Z,24.85
2022-09-20T16:13:55.931Z,24.94
2022-09-20T16:16:24.492Z,24.80
2022-09-20T16:19:10.996Z,24.78
2022-09-20T16:21:40.496Z,24.82
2022-09-20T16:24:08.922Z,24.80
2022-09-20T16:26:37.290Z,24.85
2022-09-20T16:29:05.216Z,24.88
2022-09-20T16:31:41.337Z,24.99
2022-09-20T16:34:32.875Z,24.88
2022-09-20T16:37:12.067Z,24.78
2022-09-20T16:39:41.179Z,24.52
2022-09-20T16:42:12.647Z,24.38
2022-09-20T16:44:43.065Z,24.39
2022-09-20T16:47:22.348Z,24.51
2022-09-20T16:49:50.528Z,24.33
2022-09-20T16:52:18.064Z,24.32
2022-09-20T16:54:46.119Z,24.29
2022-09-20T16:57:15.839Z,24.22
2022-09-20T16:59:43.509Z,24.15
2022-09-20T17:02:12.946Z,24.15
2022-09-20T17:04:40.679Z,24.12
2022-09-20T17:07:09.086Z,24.07
2022-09-20T17:09:36.732Z,23.89
2022-09-20T17:12:06.959Z,23.86
2022-09-20T17:14:34.849Z,23.83
2022-09-20T17:17:02.870Z,23.77
2022-09-20T17:19:30.595Z,23.73
2022-09-20T17:21:58.340Z,23.70
2022-09-20T17:24:26.689Z,23.67
2022-09-20T17:26:54.346Z,23.64
2022-09-20T17:29:22.054Z,23.61
2022-09-20T17:31:56.789Z,23.64
2022-09-20T17:34:28.274Z,23.56
2022-09-20T17:36:55.957Z,23.54
2022-09-20T17:39:24.057Z,23.52
2022-09-20T17:41:51.770Z,23.47
2022-09-20T17:44:19.378Z,23.40
2022-09-20T17:46:49.875Z,23.46
2022-09-20T17:49:19.784Z,23.44
2022-09-20T17:51:49.845Z,23.46
2022-09-20T17:54:17.877Z,23.41
2022-09-20T17:56:48.175Z,23.43
2022-09-20T17:59:17.112Z,23.39
2022-09-20T18:01:46.673Z,23.41
2022-09-20T18:04:14.484Z,23.32
2022-09-20T18:06:50.037Z,23.49
2022-09-20T18:09:20.091Z,23.33
2022-09-20T18:11:53.173Z,23.35
2022-09-20T18:14:26.429Z,23.41
2022-09-20T18:16:56.291Z,23.30
2022-09-20T18:19:23.818Z,23.20
2022-09-20T18:21:51.680Z,23.22
2022-09-20T18:24:19.250Z,23.21
2022-09-20T18:26:46.713Z,23.16
2022-09-20T18:29:18.185Z,23.08
2022-09-20T18:31:50.875Z,23.17
2022-09-20T18:34:23.722Z,23.15
2022-09-20T18:36:56.345Z,23.10
2022-09-20T18:39:26.209Z,22.93
2022-09-20T18:41:53.991Z,22.83
2022-09-20T18:44:22.722Z,22.78
2022-09-20T18:46:55.356Z,22.76
2022-09-20T18:49:23.207Z,22.72
2022-09-20T18:51:50.656Z,22.61
2022-09-20T18:54:19.173Z,22.57
2022-09-20T18:56:49.206Z,22.56
2022-09-20T18:59:22.830Z,22.58
2022-09-20T19:02:34.671Z,22.69
2022-09-20T19:05:38.236Z,22.75
2022-09-20T19:08:25.007Z,22.64
2022-09-20T19:11:01.891Z,22.47
2022-09-20T19:13:47.030Z,22.51
2022-09-20T19:16:20.322Z,22.32
2022-09-20T19:19:08.254Z,22.30
2022-09-20T19:22:04.709Z,22.34
2022-09-20T19:24:56.884Z,22.45
2022-09-20T19:27:26.042Z,22.12
2022-09-20T19:29:54.104Z,22.04
2022-09-20T19:32:26.301Z,22.05
2022-09-20T19:34:56.281Z,22.14
2022-09-20T19:37:45.199Z,22.28
2022-09-20T19:40:21.924Z,22.25
2022-09-20T19:43:23.914Z,22.33
2022-09-20T19:46:21.280Z,22.38
2022-09-20T19:48:56.793Z,22.17
2022-09-20T19:51:26.305Z,22.01
2022-09-20T19:53:55.604Z,21.96
2022-09-20T19:56:28.320Z,22.07
2022-09-20T19:58:56.582Z,21.93
2022-09-20T20:01:25.904Z,21.92
2022-09-20T20:03:55.109Z,21.86
2022-09-20T20:06:31.897Z,22.01
2022-09-20T20:09:23.809Z,21.96
2022-09-20T20:12:26.249Z,22.07
2022-09-20T20:14:59.326Z,21.76
2022-09-20T20:17:57.827Z,22.04
2022-09-20T20:20:37.147Z,21.84
2022-09-20T20:23:27.819Z,21.99
2022-09-20T20:26:03.370Z,21.79
2022-09-20T20:28:30.981Z,21.68
2022-09-20T20:31:02.478Z,21.70
2022-09-20T20:33:31.219Z,21.67
2022-09-20T20:36:00.883Z,21.71
2022-09-20T20:38:29.040Z,21.69
2022-09-20T20:41:04.150Z,21.77
2022-09-20T20:43:33.286Z,21.61
2022-09-20T20:46:01.221Z,21.61
2022-09-20T20:48:29.265Z,21.56
2022-09-20T20:51:10.760Z,21.81
2022-09-20T20:53:49.263Z,21.60
2022-09-20T20:56:21.294Z,21.55
2022-09-20T20:58:49.549Z,21.53
2022-09-20T21:01:22.675Z,21.66
2022-09-20T21:03:52.685Z,21.60
2022-09-20T21:06:21.884Z,21.46
2022-09-20T21:08:49.994Z,21.49
2022-09-20T21:11:26.396Z,21.63
2022-09-20T21:13:55.947Z,21.52
2022-09-20T21:16:26.438Z,21.55
2022-09-20T21:18:54.155Z,21.46
2022-09-20T21:21:26.244Z,21.48
2022-09-20T21:23:57.003Z,21.55
2022-09-20T21:26:25.814Z,21.42
2022-09-20T21:28:55.596Z,21.43
2022-09-20T21:31:24.356Z,21.40
2022-09-20T21:33:52.608Z,21.39
2022-09-20T21:36:22.074Z,21.42
2022-09-20T21:38:49.905Z,21.30
2022-09-20T21:41:29.605Z,21.47
2022-09-20T21:44:00.287Z,21.37
2022-09-20T21:46:32.925Z,21.33
2022-09-20T21:49:04.211Z,21.35
2022-09-20T21:51:36.763Z,21.31
2022-09-20T21:54:04.887Z,21.24
2022-09-20T21:56:34.661Z,21.22
2022-09-20T21:59:04.386Z,21.17
2022-09-20T22:01:35.150Z,21.21
2022-09-20T22:04:11.778Z,21.32
2022-09-20T22:10:09.186Z,21.21
2022-09-20T22:12:37.891Z,21.19
2022-09-20T22:15:06.432Z,21.15
2022-09-20T22:17:33.819Z,21.10
2022-09-20T22:20:01.384Z,21.10
2022-09-20T22:22:30.439Z,21.11
2022-09-20T22:24:57.832Z,21.08
2022-09-20T22:27:25.290Z,21.08
2022-09-20T22:29:52.814Z,21.09
2022-09-20T22:32:20.283Z,21.10
2022-09-20T22:34:47.732Z,21.11
2022-09-20T22:37:15.219Z,21.11
2022-09-20T22:39:42.857Z,21.12
2022-09-20T22:42:10.331Z,21.14
2022-09-20T22:44:37.943Z,21.15
2022-09-20T22:47:05.495Z,21.12
2022-09-20T22:49:32.883Z,21.17
2022-09-20T22:52:00.252Z,21.19
2022-09-20T22:54:27.625Z,21.20
2022-09-20T22:56:55.108Z,21.18
2022-09-20T22:59:22.449Z,21.16
2022-09-20T23:01:49.894Z,21.18
2022-09-20T23:04:19.705Z,21.20
2022-09-20T23:06:55.218Z,21.24
2022-09-20T23:09:25.146Z,21.25
2022-09-20T23:11:52.817Z,21.19
2022-09-20T23:14:21.896Z,21.19
2022-09-20T23:16:49.831Z,21.23
2022-09-20T23:19:17.943Z,21.25
2022-09-20T23:21:45.378Z,21.22
2022-09-20T23:24:15.043Z,21.20
2022-09-20T23:26:43.721Z,21.23
2022-09-20T23:29:13.219Z,21.26
2022-09-20T23:31:45.860Z,21.26
2022-09-20T23:34:14.850Z,21.22
2022-09-20T23:36:43.378Z,21.23
2022-09-20T23:39:12.114Z,21.18
2022-09-20T23:41:41.512Z,21.18
2022-09-20T23:44:10.406Z,21.19
2022-09-20T23:46:38.713Z,21.17
2022-09-20T23:49:07.074Z,21.15
2022-09-20T23:51:35.732Z,21.12
2022-09-20T23:54:03.557Z,21.07
2022-09-20T23:56:31.247Z,21.07
2022-09-20T23:58:58.655Z,21.03
